Honghai — XUBU8 — position and weather

sailwx.info

Track history (hours):
 
Tides and Currents Weather Stations Pressure Air Temp Water Temp Dewpoint Dewpoint Depression Visibility Wind Speed Wind Dir Waves Ship Positions

Honghai

Last reported at 2015-Jan-26 04:05 UTC. Time now 2015-Jan-28 04:21 UTC.
Position N 34°36' E 135°04'.

Length 72 m; draft 4.6 m.

Type: Cargo ship. MMSI: 515501000.

Date/timePositionNaut miles runAvg speedWind from/ knotsBaromVisibWave heightAir tempDewpointWater temp
2015-Jan-26 04:05N 34°36' E 135°04'510.3
2015-Jan-26 03:33N 34°36' E 135°11'10 9.6
2015-Jan-26 02:33N 34°40' E 135°22'3 2.5
2015-Jan-26 01:27N 34°43' E 135°20'0 0.0
2015-Jan-26 00:33N 34°43' E 135°20'0 0.0
2015-Jan-25 23:33N 34°43' E 135°20'0 0.0
2015-Jan-25 22:27N 34°43' E 135°20'0 0.0
2015-Jan-25 21:33N 34°43' E 135°20'0 0.0
2015-Jan-25 20:09N 34°43' E 135°20'0 0.1
2015-Jan-25 19:33N 34°43' E 135°20'0 0.0
2015-Jan-25 18:33N 34°43' E 135°20'0 0.0
2015-Jan-25 17:33N 34°43' E 135°20'0 0.0
2015-Jan-25 16:33N 34°43' E 135°20'0 0.0
2015-Jan-25 15:33N 34°43' E 135°20'0 0.0
2015-Jan-25 14:27N 34°43' E 135°20'0 0.0
2015-Jan-25 13:33N 34°43' E 135°20'0 0.0
2015-Jan-25 12:32N 34°43' E 135°20'0 0.0
2015-Jan-25 11:26N 34°43' E 135°20'0 0.0
2015-Jan-25 10:32N 34°43' E 135°20'0 0.0
2015-Jan-25 09:32N 34°43' E 135°20'0 0.0
2015-Jan-25 08:32N 34°43' E 135°20'0 0.0
2015-Jan-25 07:27N 34°43' E 135°20'0 0.0
2015-Jan-25 06:21N 34°43' E 135°20'0 0.1
2015-Jan-25 05:32N 34°43' E 135°20'0 0.0
2015-Jan-25 04:32N 34°43' E 135°20'0 0.0
2015-Jan-25 03:26N 34°43' E 135°20'0 0.0
2015-Jan-25 02:32N 34°43' E 135°20'0 0.0
2015-Jan-25 01:32N 34°43' E 135°20'0 0.0
2015-Jan-25 00:32N 34°43' E 135°20'0 0.0
2015-Jan-24 23:32N 34°43' E 135°20'0 0.0
2015-Jan-24 22:32N 34°43' E 135°20'0 0.0
2015-Jan-24 21:32N 34°43' E 135°20'0 0.0
2015-Jan-24 20:32N 34°43' E 135°20'0 0.0
2015-Jan-24 19:26N 34°43' E 135°20'0 0.0
2015-Jan-24 18:32N 34°43' E 135°20'0 0.0
2015-Jan-24 17:32N 34°43' E 135°20'0 0.0
2015-Jan-24 16:32N 34°43' E 135°20'0 0.0
2015-Jan-24 15:32N 34°43' E 135°20'0 0.0
2015-Jan-24 14:32N 34°43' E 135°20'0 0.0
2015-Jan-24 13:32N 34°43' E 135°20'0 0.0
2015-Jan-24 12:20N 34°43' E 135°20'0 0.0
2015-Jan-24 11:32N 34°43' E 135°20'0 0.0
2015-Jan-24 10:32N 34°43' E 135°20'0 0.0
2015-Jan-24 09:32N 34°43' E 135°20'0 0.0
2015-Jan-24 08:26N 34°43' E 135°20'0 0.0
2015-Jan-24 07:32N 34°43' E 135°20'0 0.0
2015-Jan-24 06:32N 34°43' E 135°20'0 0.0
2015-Jan-24 05:32N 34°43' E 135°20'0 0.0
2015-Jan-24 04:20N 34°43' E 135°20'0 0.0
2015-Jan-24 03:32N 34°43' E 135°20'0 0.0
2015-Jan-24 02:20N 34°43' E 135°20'0 0.0
2015-Jan-24 01:32N 34°43' E 135°20'0 0.0
2015-Jan-24 00:32N 34°43' E 135°20'0 0.0
2015-Jan-23 23:19N 34°43' E 135°20'0 0.0
2015-Jan-23 22:19N 34°43' E 135°20'1 1.0
2015-Jan-23 21:33N 34°42' E 135°21'2 1.8
2015-Jan-23 20:20N 34°40' E 135°20'0 0.0
2015-Jan-23 19:32N 34°40' E 135°20'0 0.0
2015-Jan-23 18:32N 34°40' E 135°20'0 0.0
2015-Jan-23 17:32N 34°40' E 135°20'0 0.0
2015-Jan-23 16:14N 34°40' E 135°20'0 0.0
2015-Jan-23 15:26N 34°40' E 135°20'0 0.0
2015-Jan-23 14:20N 34°40' E 135°20'0 0.0
2015-Jan-23 13:32N 34°40' E 135°20'0 0.1
2015-Jan-23 12:32N 34°40' E 135°20'0 0.0
2015-Jan-23 11:08N 34°40' E 135°20'0 0.1
2015-Jan-23 10:14N 34°40' E 135°20'6 8.5
2015-Jan-23 09:33N 34°36' E 135°15'1110.9
2015-Jan-23 08:30N 34°37' E 135°01'  
2015-Jan-17 09:34N 31°07' E 121°55'1111.4
2015-Jan-17 08:34N 31°16' E 121°46'1211.6
2015-Jan-17 07:34N 31°23' E 121°35'9 9.0
2015-Jan-17 06:34N 31°28' E 121°27'1010.0
2015-Jan-17 05:34N 31°35' E 121°18'5 3.4
2015-Jan-17 04:05N 31°38' E 121°14'0 0.0
2015-Jan-17 01:32N 31°38' E 121°14'2 0.2
2015-Jan-16 14:11N 31°38' E 121°16'4 4.1
2015-Jan-16 13:15N 31°35' E 121°19'7 9.8
2015-Jan-16 12:33N 31°30' E 121°25'9 9.3
2015-Jan-16 11:33N 31°24' E 121°33'10 9.5
2015-Jan-16 10:33N 31°19' E 121°42'1010.5
2015-Jan-16 09:33N 31°11' E 121°50'10 9.6
2015-Jan-16 08:34N 31°06' E 121°59'1110.4
2015-Jan-16 07:32N 31°03' E 122°11'  
Track history (hours):
 
Tides and Currents Weather Stations Pressure Air Temp Water Temp Dewpoint Dewpoint Depression Visibility Wind Speed Wind Dir Waves Ship Positions

Honghai

Last reported at 2015-Jan-26 04:05 UTC. Time now 2015-Jan-28 04:21 UTC.
Position N 34°36' E 135°04'.

Length 72 m; draft 4.6 m.

Type: Cargo ship. MMSI: 515501000.

Date/timePositionNaut miles runAvg speedWind from/ knotsBaromVisibWave heightAir tempDewpointWater temp
2015-Jan-26 04:05N 34°36' E 135°04'510.3
2015-Jan-26 03:33N 34°36' E 135°11'10 9.6
2015-Jan-26 02:33N 34°40' E 135°22'3 2.5
2015-Jan-26 01:27N 34°43' E 135°20'0 0.0
2015-Jan-26 00:33N 34°43' E 135°20'0 0.0
2015-Jan-25 23:33N 34°43' E 135°20'0 0.0
2015-Jan-25 22:27N 34°43' E 135°20'0 0.0
2015-Jan-25 21:33N 34°43' E 135°20'0 0.0
2015-Jan-25 20:09N 34°43' E 135°20'0 0.1
2015-Jan-25 19:33N 34°43' E 135°20'0 0.0
2015-Jan-25 18:33N 34°43' E 135°20'0 0.0
2015-Jan-25 17:33N 34°43' E 135°20'0 0.0
2015-Jan-25 16:33N 34°43' E 135°20'0 0.0
2015-Jan-25 15:33N 34°43' E 135°20'0 0.0
2015-Jan-25 14:27N 34°43' E 135°20'0 0.0
2015-Jan-25 13:33N 34°43' E 135°20'0 0.0
2015-Jan-25 12:32N 34°43' E 135°20'0 0.0
2015-Jan-25 11:26N 34°43' E 135°20'0 0.0
2015-Jan-25 10:32N 34°43' E 135°20'0 0.0
2015-Jan-25 09:32N 34°43' E 135°20'0 0.0
2015-Jan-25 08:32N 34°43' E 135°20'0 0.0
2015-Jan-25 07:27N 34°43' E 135°20'0 0.0
2015-Jan-25 06:21N 34°43' E 135°20'0 0.1
2015-Jan-25 05:32N 34°43' E 135°20'0 0.0
2015-Jan-25 04:32N 34°43' E 135°20'0 0.0
2015-Jan-25 03:26N 34°43' E 135°20'0 0.0
2015-Jan-25 02:32N 34°43' E 135°20'0 0.0
2015-Jan-25 01:32N 34°43' E 135°20'0 0.0
2015-Jan-25 00:32N 34°43' E 135°20'0 0.0
2015-Jan-24 23:32N 34°43' E 135°20'0 0.0
2015-Jan-24 22:32N 34°43' E 135°20'0 0.0
2015-Jan-24 21:32N 34°43' E 135°20'0 0.0
2015-Jan-24 20:32N 34°43' E 135°20'0 0.0
2015-Jan-24 19:26N 34°43' E 135°20'0 0.0
2015-Jan-24 18:32N 34°43' E 135°20'0 0.0
2015-Jan-24 17:32N 34°43' E 135°20'0 0.0
2015-Jan-24 16:32N 34°43' E 135°20'0 0.0
2015-Jan-24 15:32N 34°43' E 135°20'0 0.0
2015-Jan-24 14:32N 34°43' E 135°20'0 0.0
2015-Jan-24 13:32N 34°43' E 135°20'0 0.0
2015-Jan-24 12:20N 34°43' E 135°20'0 0.0
2015-Jan-24 11:32N 34°43' E 135°20'0 0.0
2015-Jan-24 10:32N 34°43' E 135°20'0 0.0
2015-Jan-24 09:32N 34°43' E 135°20'0 0.0
2015-Jan-24 08:26N 34°43' E 135°20'0 0.0
2015-Jan-24 07:32N 34°43' E 135°20'0 0.0
2015-Jan-24 06:32N 34°43' E 135°20'0 0.0
2015-Jan-24 05:32N 34°43' E 135°20'0 0.0
2015-Jan-24 04:20N 34°43' E 135°20'0 0.0
2015-Jan-24 03:32N 34°43' E 135°20'0 0.0
2015-Jan-24 02:20N 34°43' E 135°20'0 0.0
2015-Jan-24 01:32N 34°43' E 135°20'0 0.0
2015-Jan-24 00:32N 34°43' E 135°20'0 0.0
2015-Jan-23 23:19N 34°43' E 135°20'0 0.0
2015-Jan-23 22:19N 34°43' E 135°20'1 1.0
2015-Jan-23 21:33N 34°42' E 135°21'2 1.8
2015-Jan-23 20:20N 34°40' E 135°20'0 0.0
2015-Jan-23 19:32N 34°40' E 135°20'0 0.0
2015-Jan-23 18:32N 34°40' E 135°20'0 0.0
2015-Jan-23 17:32N 34°40' E 135°20'0 0.0
2015-Jan-23 16:14N 34°40' E 135°20'0 0.0
2015-Jan-23 15:26N 34°40' E 135°20'0 0.0
2015-Jan-23 14:20N 34°40' E 135°20'0 0.0
2015-Jan-23 13:32N 34°40' E 135°20'0 0.1
2015-Jan-23 12:32N 34°40' E 135°20'0 0.0
2015-Jan-23 11:08N 34°40' E 135°20'0 0.1
2015-Jan-23 10:14N 34°40' E 135°20'6 8.5
2015-Jan-23 09:33N 34°36' E 135°15'1110.9
2015-Jan-23 08:30N 34°37' E 135°01'  
2015-Jan-17 09:34N 31°07' E 121°55'1111.4
2015-Jan-17 08:34N 31°16' E 121°46'1211.6
2015-Jan-17 07:34N 31°23' E 121°35'9 9.0
2015-Jan-17 06:34N 31°28' E 121°27'1010.0
2015-Jan-17 05:34N 31°35' E 121°18'5 3.4
2015-Jan-17 04:05N 31°38' E 121°14'0 0.0
2015-Jan-17 01:32N 31°38' E 121°14'2 0.2
2015-Jan-16 14:11N 31°38' E 121°16'4 4.1
2015-Jan-16 13:15N 31°35' E 121°19'7 9.8
2015-Jan-16 12:33N 31°30' E 121°25'9 9.3
2015-Jan-16 11:33N 31°24' E 121°33'10 9.5
2015-Jan-16 10:33N 31°19' E 121°42'1010.5
2015-Jan-16 09:33N 31°11' E 121°50'10 9.6
2015-Jan-16 08:34N 31°06' E 121°59'1110.4
2015-Jan-16 07:32N 31°03' E 122°11'  

Dump ship's entire track history